Terminal Aerodrome Forecast
Issued by NWS Wilmington, OH

Current Version | Previous Version | Graphics & Text | Print | Product List | Glossary On
Versions: 1 2 3 4 5 6 7 8 9 10 11 12 13 14 15 16 17 18 19 20 21 22 23 24 25
000
FTUS41 KILN 142200 AAD
TAFDAY
TAF AMD
KDAY 142217Z 1422/1518 33011KT P6SM OVC008
     FM142300 33011KT P6SM OVC010
     FM150200 34014KT P6SM -RA OVC010
     FM150400 34015KT 4SM -RA BR OVC008
     FM150600 34015G23KT 1SM -SN OVC006
     FM150800 33016G24KT 5SM -SN OVC008
     FM151000 33018G26KT P6SM OVC008
     FM151400 32014G24KT P6SM BKN015
     FM151700 32012G22KT P6SM BKN022=

USA.gov is the U.S. government's official web portal to all federal, state and local government web resources and services.